Flight Track Log - Related Links

Times and Time Zones

All times are in EDT time to prevent confusion due to time zone crossing. See the EJA929 flight status page for this flight to view local times or setup timezone preferences in your user account.

Time Position Orientation Groundspeed Altitude Reporting Facility
EDT Latitude Longitude Course Direction KTS MPH feet Rate Location/Type
Mon 03:15:02 PM 35.3747 -97.5944 166° South 169 194 2,100  Level Fort Worth Center
Mon 03:16:03 PM 35.3228 -97.5789 166° South 213 245 5,300 2,940 Climbing Fort Worth Center
Mon 03:18:22 PM 35.4581 -97.3986 47° Northeast 366 421 11,900 2,597 Climbing Kansas City Center
Mon 03:19:24 PM 35.5183 -97.2722 60° Northeast 408 470 14,000 1,984 Climbing Kansas City Center
Mon 03:20:26 PM 35.5814 -97.1386 60° Northeast 438 504 16,000 2,049 Climbing Kansas City Center
Mon 03:21:27 PM 35.6422 -97.0064 60° Northeast 445 512 18,200 2,049 Climbing Kansas City Center
Mon 03:22:29 PM 35.7017 -96.8764 61° Northeast 439 505 20,200 1,935 Climbing Kansas City Center
Mon 03:23:31 PM 35.7614 -96.7458 61° Northeast 438 504 22,200 1,561 Climbing Kansas City Center
Mon 03:24:32 PM 35.8236 -96.6100 61° Northeast 451 519 23,400 1,073 Climbing Kansas City Center
Mon 03:25:34 PM 35.8892 -96.4658 61° Northeast 474 545 24,400 1,065 Climbing Kansas City Center
Mon 03:26:36 PM 35.9722 -96.2833 61° Northeast 498 573 25,600 1,073 Climbing Kansas City Center
Mon 03:27:37 PM 36.0431 -96.1272 61° Northeast 511 588 26,600 1,171 Climbing Kansas City Center
Mon 03:28:39 PM 36.1147 -95.9683 61° Northeast 521 600 28,000 1,403 Climbing Kansas City Center
Mon 03:29:41 PM 36.1858 -95.8097 61° Northeast 524 603 29,500 1,463 Climbing Kansas City Center
Mon 03:30:42 PM 36.2583 -95.6522 60° Northeast 526 605 31,000 1,463 Climbing Kansas City Center
Mon 03:31:44 PM 36.3342 -95.4928 59° Northeast 531 611 32,500 1,403 Climbing Kansas City Center
Mon 03:32:46 PM 36.3969 -95.3236 65° Northeast 536 617 33,900 1,171 Climbing Kansas City Center
Mon 03:33:47 PM 36.4467 -95.1428 71° East 547 629 34,900 537 Climbing Kansas City Center
Mon 03:34:49 PM 36.5131 -94.9369 68° East 559 643 35,000 484 Climbing Kansas City Center
Mon 03:35:51 PM 36.5725 -94.7506 68° East 571 657 35,900 919 Climbing Kansas City Center
Mon 03:36:53 PM 36.6325 -94.5686 68° East 571 657 36,900 976 Climbing Kansas City Center
Mon 03:37:54 PM 36.6914 -94.3878 68° East 568 654 37,900 1,073 Climbing Kansas City Center
Mon 03:38:56 PM 36.7606 -94.1700 68° East 564 649 39,100 1,065 Climbing Kansas City Center
Mon 03:39:58 PM 36.8175 -93.9881 69° East 563 648 40,100 927 Climbing Kansas City Center
Mon 03:40:59 PM 36.8789 -93.8150 66° East 554 638 41,000 439 Climbing Kansas City Center
Mon 03:42:01 PM 36.9353 -93.6586 66° East 549 632 41,000  Level Kansas City Center
Mon 03:43:03 PM 37.0078 -93.4450 67° East 554 638 41,000  Level Kansas City Center
Mon 03:44:04 PM 37.0706 -93.2681 66° East 557 641 41,000  Level Kansas City Center
Mon 03:45:06 PM 37.1333 -93.0925 66° East 554 638 41,000  Level Kansas City Center
Mon 03:46:08 PM 37.1953 -92.9192 66° East 549 632 41,000  Level Kansas City Center
Mon 03:47:09 PM 37.2586 -92.7442 66° East 550 633 41,000  Level Kansas City Center
Mon 03:48:11 PM 37.3314 -92.5739 62° Northeast 554 638 41,000  Level Kansas City Center
Mon 03:49:13 PM 37.4056 -92.4042 61° Northeast 555 639 41,000  Level Kansas City Center
Mon 03:50:14 PM 37.4958 -92.2017 61° Northeast 556 640 41,000  Level Kansas City Center
Mon 03:51:16 PM 37.5686 -92.0328 61° Northeast 554 638 41,000  Level Kansas City Center
Mon 03:52:18 PM 37.6419 -91.8631 61° Northeast 554 638 41,000  Level Kansas City Center
Mon 03:53:19 PM 37.7144 -91.6956 61° Northeast 549 632 41,000  Level Kansas City Center
Mon 03:54:21 PM 37.7856 -91.5286 62° Northeast 543 625 41,000  Level Kansas City Center
Mon 03:55:23 PM 37.8561 -91.3658 61° Northeast 533 613 41,000  Level Kansas City Center
Mon 03:56:24 PM 37.9269 -91.2003 61° Northeast 533 613 41,000  Level Kansas City Center
Mon 03:57:26 PM 37.9992 -91.0267 62° Northeast 536 617 41,000  Level Kansas City Center
Mon 03:58:28 PM 38.0689 -90.8592 62° Northeast 538 619 41,000  Level Kansas City Center
Mon 03:59:29 PM 38.1522 -90.6583 62° Northeast 539 620 41,000  Level Kansas City Center
Mon 04:00:31 PM 38.2208 -90.4900 63° Northeast 539 620 41,000  Level Kansas City Center
Mon 04:01:33 PM 38.2900 -90.3175 63° Northeast 546 628 41,000  Level Kansas City Center
Mon 04:02:34 PM 38.3600 -90.1472 62° Northeast 550 633 41,000  Level Kansas City Center
Mon 04:03:36 PM 38.4292 -89.9786 62° Northeast 548 631 41,000  Level Kansas City Center
Mon 04:04:38 PM 38.5117 -89.7756 63° Northeast 547 629 41,000  Level Kansas City Center
Mon 04:05:40 PM 38.5853 -89.5950 62° Northeast 558 642 41,000  Level Kansas City Center
Mon 04:06:42 PM 38.6542 -89.4231 63° Northeast 546 628 41,000  Level Kansas City Center
Mon 04:07:43 PM 38.7278 -89.2378 63° Northeast 545 627 41,000  Level Kansas City Center
Mon 04:08:45 PM 38.7956 -89.0667 63° Northeast 541 623 41,000  Level Kansas City Center
Mon 04:09:47 PM 38.8556 -88.9192 62° Northeast 538 619 41,000  Level Kansas City Center
Mon 04:10:49 PM 38.9361 -88.7144 63° Northeast 537 618 41,000  Level Kansas City Center
Mon 04:11:51 PM 38.9978 -88.5536 64° Northeast 538 619 41,000  Level Kansas City Center
Mon 04:12:53 PM 39.0644 -88.3806 64° Northeast 538 619 41,000  Level Kansas City Center
Mon 04:13:54 PM 39.1303 -88.2081 64° Northeast 535 616 41,000  Level Kansas City Center
Mon 04:14:56 PM 39.1967 -88.0336 64° Northeast 537 618 41,000  Level Kansas City Center
Mon 04:15:58 PM 39.2758 -87.8253 64° Northeast 536 617 41,000  Level Kansas City Center
Mon 04:17:00 PM 39.3403 -87.6547 64° Northeast 528 608 41,000  Level Kansas City Center
Mon 04:18:14 PM 39.4103 -87.4672 64° Northeast 523 602 41,000  Level Indianapolis Center
Mon 04:19:16 PM 39.4753 -87.2964 64° Northeast 528 608 41,000  Level Indianapolis Center
Mon 04:20:18 PM 39.5414 -87.1247 63° Northeast 532 612 41,000  Level Indianapolis Center
Mon 04:21:20 PM 39.6194 -86.9206 64° Northeast 529 609 41,000  Level Indianapolis Center
Mon 04:22:22 PM 39.6839 -86.7497 64° Northeast 526 605 41,000  Level Indianapolis Center
Mon 04:23:24 PM 39.7478 -86.5794 64° Northeast 525 604 41,000  Level Indianapolis Center
Mon 04:24:26 PM 39.8183 -86.3864 65° Northeast 529 609 41,000  Level Indianapolis Center
Mon 04:25:28 PM 39.8792 -86.2239 64° Northeast 531 611 41,000  Level Indianapolis Center
Mon 04:26:30 PM 39.9417 -86.0492 65° Northeast 529 609 41,000  Level Indianapolis Center
Mon 04:27:32 PM 40.0044 -85.8758 65° Northeast 529 609 41,000  Level Indianapolis Center
Mon 04:28:34 PM 40.0675 -85.7039 64° Northeast 528 608 41,000  Level Indianapolis Center
Mon 04:29:36 PM 40.1417 -85.4972 65° Northeast 526 605 41,000  Level Indianapolis Center
Mon 04:30:38 PM 40.2033 -85.3256 65° Northeast 525 604 41,000  Level Indianapolis Center
Mon 04:31:40 PM 40.2636 -85.1544 65° Northeast 520 598 41,000  Level Indianapolis Center
Mon 04:32:42 PM 40.3239 -84.9850 65° Northeast 517 595 41,000  Level Indianapolis Center
Mon 04:33:44 PM 40.3872 -84.8092 65° Northeast 519 597 41,000  Level Indianapolis Center
Mon 04:34:47 PM 40.4472 -84.6356 66° East 518 596 41,000  Level Indianapolis Center
Mon 04:35:49 PM 40.5075 -84.4617 65° Northeast 517 595 41,000  Level Indianapolis Center
Mon 04:36:51 PM 40.5767 -84.2583 66° East 516 594 41,000  Level Indianapolis Center
Mon 04:37:53 PM 40.6372 -84.0831 65° Northeast 519 597 41,000  Level Indianapolis Center
Mon 04:38:55 PM 40.6978 -83.9067 66° East 521 600 41,000  Level Indianapolis Center
Mon 04:39:57 PM 40.7567 -83.7303 66° East 519 597 41,000  Level Indianapolis Center
Mon 04:40:59 PM 40.8164 -83.5542 66° East 520 598 41,000  Level Indianapolis Center
Mon 04:42:01 PM 40.8797 -83.3642 66° East 523 602 41,000  Level Indianapolis Center
Mon 04:42:44 PM 40.9197 -83.2542 64° Northeast 520 598 41,000  Level Cleveland Center
Mon 04:43:44 PM 40.9803 -83.0614 67° East 509 586 41,000  Level Cleveland Center
Mon 04:44:44 PM 41.0361 -82.8900 67° East 509 586 41,000  Level Cleveland Center
Mon 04:45:44 PM 41.0917 -82.7156 67° East 509 586 41,000  Level Cleveland Center
Mon 04:46:44 PM 41.1489 -82.5411 66° East 509 586 41,000  Level Cleveland Center
Mon 04:47:44 PM 41.2058 -82.3689 66° East 509 586 41,000  Level Cleveland Center
Mon 04:48:44 PM 41.2606 -82.1961 67° East 509 586 41,000  Level Cleveland Center
Mon 04:49:44 PM 41.3194 -82.0181 66° East 509 586 41,000  Level Cleveland Center
Mon 04:50:44 PM 41.3733 -81.8506 67° East 509 586 41,000  Level Cleveland Center
Mon 04:51:44 PM 41.4208 -81.6992 67° East 504 580 41,000  Level Cleveland Center
Mon 04:52:44 PM 41.4808 -81.5089 67° East 504 580 41,000  Level Cleveland Center
Mon 04:53:44 PM 41.5322 -81.3347 68° East 498 573 41,000  Level Cleveland Center
Mon 04:54:44 PM 41.5833 -81.1633 68° East 493 567 41,000  Level Cleveland Center
Mon 04:55:44 PM 41.6383 -80.9889 67° East 498 573 41,000  Level Cleveland Center
Mon 04:56:44 PM 41.6889 -80.8194 68° East 493 567 41,000  Level Cleveland Center
Mon 04:57:44 PM 41.7431 -80.6444 67° East 493 567 41,000  Level Cleveland Center
Mon 04:58:44 PM 41.7972 -80.4689 67° East 493 567 41,000  Level Cleveland Center
Mon 04:59:44 PM 41.8469 -80.2933 69° East 493 567 41,000  Level Cleveland Center
Mon 05:00:44 PM 41.8925 -80.1397 68° East 498 573 41,000  Level Cleveland Center
Mon 05:01:44 PM 41.9500 -79.9439 68° East 498 573 41,000  Level Cleveland Center
Mon 05:02:44 PM 41.9486 -79.7594 91° East 477 549 41,000  Level Cleveland Center
Mon 05:03:44 PM 41.9328 -79.5756 97° East 482 555 41,000  Level Cleveland Center
Mon 05:04:44 PM 41.9142 -79.3889 98° East 490 564 41,000  Level Cleveland Center
Mon 05:05:44 PM 41.8975 -79.2106 97° East 490 564 41,000  Level Cleveland Center
Mon 05:06:44 PM 41.8786 -79.0242 98° East 495 570 41,000  Level Cleveland Center
Mon 05:07:44 PM 41.8592 -78.8408 98° East 500 575 41,000  Level Cleveland Center
Mon 05:08:44 PM 41.8417 -78.6572 97° East 500 575 41,000 -550 Level Cleveland Center
Mon 05:09:44 PM 41.8239 -78.4767 97° East 500 575 39,900 -1,843 Descending Cleveland Center
Mon 05:11:17 PM 41.7958 -78.2247 98° East 494 568 36,300 -2,314 Descending New York Center
Mon 05:12:17 PM 41.7742 -78.0358 99° East 494 568 34,000 -1,150 Descending New York Center
Mon 05:13:17 PM 41.7542 -77.8475 98° East 505 581 34,000  Level New York Center
Mon 05:14:15 PM 41.7322 -77.6533 99° East 516 594 34,000  Level New York Center
Mon 05:15:16 PM 41.7122 -77.4594 98° East 516 594 34,000  Level New York Center
Mon 05:16:17 PM 41.6914 -77.2683 98° East 521 600 34,000  Level New York Center
Mon 05:17:17 PM 41.6528 -77.0564 104° East 527 606 34,000  Level New York Center
Mon 05:18:15 PM 41.6022 -76.8711 110° East 532 612 34,000 -153 Level New York Center
Mon 05:19:15 PM 41.5617 -76.7233 110° East 532 612 33,700 -1,587 Descending New York Center
Mon 05:20:16 PM 41.5089 -76.5275 110° East 525 604 30,800 -2,876 Descending New York Center
Mon 05:21:16 PM 41.4542 -76.3208 109° East 525 604 27,900 -2,876 Descending New York Center
Mon 05:22:17 PM 41.4006 -76.1311 111° Southeast 531 611 25,000 -2,800 Descending New York Center
Mon 05:23:16 PM 41.3514 -75.9667 112° Southeast 511 588 22,300 -2,420 Descending New York Center
Mon 05:24:16 PM 41.3156 -75.8342 110° East 491 565 20,200 -2,017 Descending New York Center
Mon 05:25:15 PM 41.2608 -75.6506 112° Southeast 485 558 18,300 -2,100 Descending New York Center
Mon 05:26:16 PM 41.2447 -75.4811 97° East 439 505 16,000 -2,529 Descending New York Center
Mon 05:27:16 PM 41.2297 -75.3311 98° East 426 490 13,200 -2,380 Descending New York Center
Mon 05:28:17 PM 41.1822 -75.2094 117° Southeast 392 451 11,200 -1,934 Descending New York Center
Mon 05:29:17 PM 41.1311 -75.1317 131° Southeast 335 386 9,300 -2,050 Descending New York Center
Mon 05:30:17 PM 41.0742 -75.0372 129° Southeast 303 349 7,100 -1,729 Descending New York Center
Mon 05:31:15 PM 41.0289 -74.9628 129° Southeast 296 341 5,900 -900 Descending New York Center
Mon 05:32:17 PM 40.9953 -74.8536 112° Southeast 286 329 5,300 -787 Descending New York Center
Mon 05:33:17 PM 41.0003 -74.7631 86° East 269 310 4,300 -700 Descending New York Center
Mon 05:34:17 PM 41.0039 -74.6533 87° East 269 310 3,900 -559 Descending New York Center
Mon 05:35:15 PM 41.0069 -74.5628 87° East 269 310 3,200 -508 Descending New York Center
Mon 05:36:15 PM 41.0103 -74.4558 88° East 269 310 2,900 -149 Descending New York Center
Mon 05:37:16 PM 41.0153 -74.3681 86° East 269 310 2,900 63 Level New York Center
Mon 05:37:51 PM 41.0167 -74.3000 88° East 240 276 3,000 63 Climbing New York TRACON
Mon 05:38:51 PM 41.0167 -74.2167 90° East 233 268 3,000 -350 Level New York TRACON
Mon 05:39:51 PM 41.0167 -74.1500 90° East 195 224 2,300 -500 Descending New York TRACON
Mon 05:40:51 PM 41.0167 -74.0833 90° East 210 242 2,000 -150 Descending New York TRACON
Mon 05:41:51 PM 40.9667 -74.0500 153° Southeast 186 214 2,000 -250 Level New York TRACON
Mon 05:42:51 PM 40.9333 -74.0500 180° South 160 184 1,500 -600 Descending New York TRACON
Mon 05:43:51 PM 40.8833 -74.0500 180° South 135 155 800 -700 Descending New York TRACON
Mon 05:45:00 PM 40.8500 -74.0500 175° South  Level FlightAware Approximate
Mon 05:52:00 PM 40.8501 -74.0608 175° South  Level Estimated
Mon 05:53:00 PM 40.8501 -74.0608 175° South  Level Estimated

Login

Don't have an account? Register now (free) for customized features, flight alerts, and more!